sensor_id;sensor_type;location;lat;lon;timestamp;P1;durP1;ratioP1;P2;durP2;ratioP2
72235;SDS011;60146;52.498;13.462;2023-03-12T00:02:16;3.93;;;1.47;;
72235;SDS011;60146;52.498;13.462;2023-03-12T00:04:41;5.80;;;2.00;;
72235;SDS011;60146;52.498;13.462;2023-03-12T00:07:06;4.90;;;1.53;;
72235;SDS011;60146;52.498;13.462;2023-03-12T00:09:36;4.03;;;1.50;;
72235;SDS011;60146;52.498;13.462;2023-03-12T00:12:03;5.90;;;1.73;;
72235;SDS011;60146;52.498;13.462;2023-03-12T00:14:29;3.27;;;1.07;;
72235;SDS011;60146;52.498;13.462;2023-03-12T00:16:54;4.27;;;1.57;;
72235;SDS011;60146;52.498;13.462;2023-03-12T00:19:20;7.10;;;2.27;;
72235;SDS011;60146;52.498;13.462;2023-03-12T00:21:46;5.30;;;1.80;;
72235;SDS011;60146;52.498;13.462;2023-03-12T00:24:12;3.07;;;1.60;;
72235;SDS011;60146;52.498;13.462;2023-03-12T00:26:37;4.73;;;1.00;;
72235;SDS011;60146;52.498;13.462;2023-03-12T00:29:03;5.40;;;1.10;;
72235;SDS011;60146;52.498;13.462;2023-03-12T00:31:29;5.20;;;1.40;;
72235;SDS011;60146;52.498;13.462;2023-03-12T00:33:56;3.93;;;1.27;;
72235;SDS011;60146;52.498;13.462;2023-03-12T00:36:24;3.73;;;1.20;;
72235;SDS011;60146;52.498;13.462;2023-03-12T00:38:52;2.03;;;0.90;;
72235;SDS011;60146;52.498;13.462;2023-03-12T00:41:19;5.63;;;1.27;;
72235;SDS011;60146;52.498;13.462;2023-03-12T00:43:46;3.07;;;1.10;;
72235;SDS011;60146;52.498;13.462;2023-03-12T00:46:13;5.77;;;1.37;;
72235;SDS011;60146;52.498;13.462;2023-03-12T00:48:38;5.00;;;1.77;;
72235;SDS011;60146;52.498;13.462;2023-03-12T00:51:05;4.40;;;1.37;;
72235;SDS011;60146;52.498;13.462;2023-03-12T00:53:30;3.93;;;1.40;;
72235;SDS011;60146;52.498;13.462;2023-03-12T00:55:55;3.23;;;1.33;;
72235;SDS011;60146;52.498;13.462;2023-03-12T00:58:21;4.80;;;1.57;;
72235;SDS011;60146;52.498;13.462;2023-03-12T01:00:46;2.70;;;1.53;;
72235;SDS011;60146;52.498;13.462;2023-03-12T01:03:12;6.27;;;1.73;;
72235;SDS011;60146;52.498;13.462;2023-03-12T01:05:37;4.20;;;1.30;;
72235;SDS011;60146;52.498;13.462;2023-03-12T01:08:05;3.90;;;1.47;;
72235;SDS011;60146;52.498;13.462;2023-03-12T01:10:31;3.13;;;1.00;;
72235;SDS011;60146;52.498;13.462;2023-03-12T01:12:56;3.97;;;1.67;;
72235;SDS011;60146;52.498;13.462;2023-03-12T01:15:22;7.13;;;1.53;;
72235;SDS011;60146;52.498;13.462;2023-03-12T01:17:47;5.60;;;1.33;;
72235;SDS011;60146;52.498;13.462;2023-03-12T01:20:13;7.13;;;1.30;;
72235;SDS011;60146;52.498;13.462;2023-03-12T01:22:39;3.83;;;1.67;;
72235;SDS011;60146;52.498;13.462;2023-03-12T01:25:04;6.87;;;1.60;;
72235;SDS011;60146;52.498;13.462;2023-03-12T01:27:30;3.63;;;1.63;;
72235;SDS011;60146;52.498;13.462;2023-03-12T01:29:55;7.07;;;1.50;;
72235;SDS011;60146;52.498;13.462;2023-03-12T01:32:21;5.00;;;1.47;;
72235;SDS011;60146;52.498;13.462;2023-03-12T01:34:46;3.17;;;1.43;;
72235;SDS011;60146;52.498;13.462;2023-03-12T01:37:12;3.57;;;1.50;;
72235;SDS011;60146;52.498;13.462;2023-03-12T01:39:37;5.17;;;1.67;;
72235;SDS011;60146;52.498;13.462;2023-03-12T01:42:02;3.20;;;1.33;;
72235;SDS011;60146;52.498;13.462;2023-03-12T01:44:28;4.70;;;1.43;;
72235;SDS011;60146;52.498;13.462;2023-03-12T01:46:53;4.90;;;1.57;;
72235;SDS011;60146;52.498;13.462;2023-03-12T01:49:29;4.73;;;1.37;;
72235;SDS011;60146;52.498;13.462;2023-03-12T01:51:59;2.93;;;1.33;;
72235;SDS011;60146;52.498;13.462;2023-03-12T01:54:26;4.53;;;1.60;;
72235;SDS011;60146;52.498;13.462;2023-03-12T01:57:11;4.37;;;1.53;;
72235;SDS011;60146;52.498;13.462;2023-03-12T01:59:43;3.05;;;1.30;;
72235;SDS011;60146;52.498;13.462;2023-03-12T02:02:13;5.53;;;1.40;;
72235;SDS011;60146;52.498;13.462;2023-03-12T02:04:39;5.53;;;1.43;;
72235;SDS011;60146;52.498;13.462;2023-03-12T02:07:09;4.90;;;1.67;;
72235;SDS011;60146;52.498;13.462;2023-03-12T02:09:40;4.50;;;1.73;;
72235;SDS011;60146;52.498;13.462;2023-03-12T02:12:08;5.43;;;1.70;;
72235;SDS011;60146;52.498;13.462;2023-03-12T02:14:34;2.33;;;1.47;;
72235;SDS011;60146;52.498;13.462;2023-03-12T02:17:00;6.90;;;1.80;;
72235;SDS011;60146;52.498;13.462;2023-03-12T02:19:33;5.23;;;1.80;;
72235;SDS011;60146;52.498;13.462;2023-03-12T02:22:02;5.33;;;1.37;;
72235;SDS011;60146;52.498;13.462;2023-03-12T02:24:35;6.43;;;1.10;;
72235;SDS011;60146;52.498;13.462;2023-03-12T02:27:07;2.53;;;1.30;;
72235;SDS011;60146;52.498;13.462;2023-03-12T02:29:37;4.90;;;1.43;;
72235;SDS011;60146;52.498;13.462;2023-03-12T02:32:04;6.07;;;1.70;;
72235;SDS011;60146;52.498;13.462;2023-03-12T02:34:32;4.10;;;1.60;;
72235;SDS011;60146;52.498;13.462;2023-03-12T02:36:57;6.67;;;1.50;;
72235;SDS011;60146;52.498;13.462;2023-03-12T02:39:22;5.23;;;1.40;;
72235;SDS011;60146;52.498;13.462;2023-03-12T02:41:53;3.20;;;1.53;;
72235;SDS011;60146;52.498;13.462;2023-03-12T02:44:22;8.47;;;1.73;;
72235;SDS011;60146;52.498;13.462;2023-03-12T02:46:54;3.87;;;1.30;;
72235;SDS011;60146;52.498;13.462;2023-03-12T02:49:22;9.33;;;1.77;;
72235;SDS011;60146;52.498;13.462;2023-03-12T02:51:50;7.77;;;2.33;;
72235;SDS011;60146;52.498;13.462;2023-03-12T02:54:18;7.30;;;1.80;;
72235;SDS011;60146;52.498;13.462;2023-03-12T02:56:44;5.07;;;1.67;;
72235;SDS011;60146;52.498;13.462;2023-03-12T02:59:11;4.77;;;1.50;;
72235;SDS011;60146;52.498;13.462;2023-03-12T03:01:38;6.57;;;1.40;;
72235;SDS011;60146;52.498;13.462;2023-03-12T03:04:04;4.57;;;1.40;;
72235;SDS011;60146;52.498;13.462;2023-03-12T03:06:31;5.20;;;1.50;;
72235;SDS011;60146;52.498;13.462;2023-03-12T03:08:57;3.93;;;1.40;;
72235;SDS011;60146;52.498;13.462;2023-03-12T03:11:23;4.30;;;1.40;;
72235;SDS011;60146;52.498;13.462;2023-03-12T03:13:49;7.17;;;1.67;;
72235;SDS011;60146;52.498;13.462;2023-03-12T03:16:15;3.10;;;1.60;;
72235;SDS011;60146;52.498;13.462;2023-03-12T03:18:41;4.97;;;1.47;;
72235;SDS011;60146;52.498;13.462;2023-03-12T03:21:07;3.57;;;1.60;;
72235;SDS011;60146;52.498;13.462;2023-03-12T03:23:33;9.27;;;1.90;;
72235;SDS011;60146;52.498;13.462;2023-03-12T03:25:59;4.60;;;2.10;;
72235;SDS011;60146;52.498;13.462;2023-03-12T03:28:25;4.30;;;1.67;;
72235;SDS011;60146;52.498;13.462;2023-03-12T03:30:52;6.40;;;1.83;;
72235;SDS011;60146;52.498;13.462;2023-03-12T03:33:18;5.03;;;1.90;;
72235;SDS011;60146;52.498;13.462;2023-03-12T03:35:44;4.73;;;1.30;;
72235;SDS011;60146;52.498;13.462;2023-03-12T03:38:09;3.73;;;1.67;;
72235;SDS011;60146;52.498;13.462;2023-03-12T03:40:35;4.53;;;1.60;;
72235;SDS011;60146;52.498;13.462;2023-03-12T03:43:00;4.60;;;1.30;;
72235;SDS011;60146;52.498;13.462;2023-03-12T03:45:26;4.93;;;1.53;;
72235;SDS011;60146;52.498;13.462;2023-03-12T03:47:51;5.07;;;1.43;;
72235;SDS011;60146;52.498;13.462;2023-03-12T03:50:17;4.80;;;1.60;;
72235;SDS011;60146;52.498;13.462;2023-03-12T03:52:42;3.80;;;1.57;;
72235;SDS011;60146;52.498;13.462;2023-03-12T03:55:08;4.20;;;1.93;;
72235;SDS011;60146;52.498;13.462;2023-03-12T03:57:33;4.33;;;1.50;;
72235;SDS011;60146;52.498;13.462;2023-03-12T03:59:59;4.03;;;1.47;;
72235;SDS011;60146;52.498;13.462;2023-03-12T04:02:24;3.20;;;1.53;;
72235;SDS011;60146;52.498;13.462;2023-03-12T04:04:51;7.37;;;1.50;;
72235;SDS011;60146;52.498;13.462;2023-03-12T04:07:20;3.50;;;1.67;;
72235;SDS011;60146;52.498;13.462;2023-03-12T04:09:45;4.73;;;1.90;;
72235;SDS011;60146;52.498;13.462;2023-03-12T04:12:11;8.70;;;1.63;;
72235;SDS011;60146;52.498;13.462;2023-03-12T04:14:38;4.77;;;1.70;;
72235;SDS011;60146;52.498;13.462;2023-03-12T04:17:04;9.60;;;2.17;;
72235;SDS011;60146;52.498;13.462;2023-03-12T04:19:29;6.50;;;1.87;;
72235;SDS011;60146;52.498;13.462;2023-03-12T04:21:55;4.10;;;1.67;;
72235;SDS011;60146;52.498;13.462;2023-03-12T04:24:21;4.67;;;1.83;;
72235;SDS011;60146;52.498;13.462;2023-03-12T04:26:46;7.13;;;1.90;;
72235;SDS011;60146;52.498;13.462;2023-03-12T04:29:11;2.80;;;1.63;;
72235;SDS011;60146;52.498;13.462;2023-03-12T04:31:37;4.80;;;1.90;;
72235;SDS011;60146;52.498;13.462;2023-03-12T04:34:02;4.83;;;2.00;;
72235;SDS011;60146;52.498;13.462;2023-03-12T04:36:28;7.73;;;1.90;;
72235;SDS011;60146;52.498;13.462;2023-03-12T04:38:54;5.30;;;2.00;;
72235;SDS011;60146;52.498;13.462;2023-03-12T04:41:20;5.80;;;2.10;;
72235;SDS011;60146;52.498;13.462;2023-03-12T04:43:45;4.20;;;2.20;;
72235;SDS011;60146;52.498;13.462;2023-03-12T04:46:10;3.20;;;1.77;;
72235;SDS011;60146;52.498;13.462;2023-03-12T04:48:36;4.53;;;2.33;;
72235;SDS011;60146;52.498;13.462;2023-03-12T04:51:02;5.13;;;2.37;;
72235;SDS011;60146;52.498;13.462;2023-03-12T04:53:28;8.90;;;2.40;;
72235;SDS011;60146;52.498;13.462;2023-03-12T04:55:54;6.70;;;2.37;;
72235;SDS011;60146;52.498;13.462;2023-03-12T04:58:19;8.57;;;2.40;;
72235;SDS011;60146;52.498;13.462;2023-03-12T05:00:46;6.10;;;2.47;;
72235;SDS011;60146;52.498;13.462;2023-03-12T05:03:13;7.13;;;2.40;;
72235;SDS011;60146;52.498;13.462;2023-03-12T05:05:38;5.70;;;2.40;;
72235;SDS011;60146;52.498;13.462;2023-03-12T05:08:04;7.37;;;2.60;;
72235;SDS011;60146;52.498;13.462;2023-03-12T05:10:29;6.13;;;2.53;;
72235;SDS011;60146;52.498;13.462;2023-03-12T05:12:54;6.97;;;2.67;;
72235;SDS011;60146;52.498;13.462;2023-03-12T05:15:20;4.87;;;2.30;;
72235;SDS011;60146;52.498;13.462;2023-03-12T05:17:45;6.33;;;2.57;;
72235;SDS011;60146;52.498;13.462;2023-03-12T05:20:11;8.63;;;2.50;;
72235;SDS011;60146;52.498;13.462;2023-03-12T05:22:37;6.37;;;2.87;;
72235;SDS011;60146;52.498;13.462;2023-03-12T05:25:03;6.77;;;2.60;;
72235;SDS011;60146;52.498;13.462;2023-03-12T05:27:28;7.80;;;2.67;;
72235;SDS011;60146;52.498;13.462;2023-03-12T05:29:54;6.37;;;2.60;;
72235;SDS011;60146;52.498;13.462;2023-03-12T05:32:19;6.70;;;2.67;;
72235;SDS011;60146;52.498;13.462;2023-03-12T05:34:45;7.80;;;2.80;;
72235;SDS011;60146;52.498;13.462;2023-03-12T05:37:10;8.10;;;2.90;;
72235;SDS011;60146;52.498;13.462;2023-03-12T05:39:36;7.47;;;2.97;;
72235;SDS011;60146;52.498;13.462;2023-03-12T05:42:02;7.50;;;2.20;;
72235;SDS011;60146;52.498;13.462;2023-03-12T05:44:27;7.07;;;2.40;;
72235;SDS011;60146;52.498;13.462;2023-03-12T05:46:53;4.20;;;2.30;;
72235;SDS011;60146;52.498;13.462;2023-03-12T05:49:19;9.13;;;2.60;;
72235;SDS011;60146;52.498;13.462;2023-03-12T05:51:46;5.80;;;2.80;;
72235;SDS011;60146;52.498;13.462;2023-03-12T05:54:12;9.27;;;2.30;;
72235;SDS011;60146;52.498;13.462;2023-03-12T05:56:38;4.13;;;2.10;;
72235;SDS011;60146;52.498;13.462;2023-03-12T05:59:04;4.17;;;1.97;;
72235;SDS011;60146;52.498;13.462;2023-03-12T06:01:30;4.20;;;2.00;;
72235;SDS011;60146;52.498;13.462;2023-03-12T06:03:56;5.03;;;2.10;;
72235;SDS011;60146;52.498;13.462;2023-03-12T06:06:22;5.37;;;2.00;;
72235;SDS011;60146;52.498;13.462;2023-03-12T06:08:48;6.50;;;2.20;;
72235;SDS011;60146;52.498;13.462;2023-03-12T06:11:15;6.30;;;2.20;;
72235;SDS011;60146;52.498;13.462;2023-03-12T06:13:40;6.10;;;2.17;;
72235;SDS011;60146;52.498;13.462;2023-03-12T06:16:07;9.70;;;2.20;;
72235;SDS011;60146;52.498;13.462;2023-03-12T06:18:35;5.53;;;2.27;;
72235;SDS011;60146;52.498;13.462;2023-03-12T06:21:11;5.07;;;1.93;;
72235;SDS011;60146;52.498;13.462;2023-03-12T06:23:37;6.10;;;2.37;;
72235;SDS011;60146;52.498;13.462;2023-03-12T06:26:03;5.33;;;2.30;;
72235;SDS011;60146;52.498;13.462;2023-03-12T06:28:29;8.97;;;2.40;;
72235;SDS011;60146;52.498;13.462;2023-03-12T06:30:54;6.10;;;2.17;;
72235;SDS011;60146;52.498;13.462;2023-03-12T06:33:20;10.30;;;2.17;;
72235;SDS011;60146;52.498;13.462;2023-03-12T06:35:46;3.83;;;2.00;;
72235;SDS011;60146;52.498;13.462;2023-03-12T06:38:12;7.90;;;2.63;;
72235;SDS011;60146;52.498;13.462;2023-03-12T06:40:37;4.93;;;2.30;;
72235;SDS011;60146;52.498;13.462;2023-03-12T06:43:03;4.83;;;2.40;;
72235;SDS011;60146;52.498;13.462;2023-03-12T06:45:28;4.90;;;2.13;;
72235;SDS011;60146;52.498;13.462;2023-03-12T06:47:54;4.50;;;2.03;;
72235;SDS011;60146;52.498;13.462;2023-03-12T06:50:19;5.00;;;2.10;;
72235;SDS011;60146;52.498;13.462;2023-03-12T06:52:44;8.10;;;2.20;;
72235;SDS011;60146;52.498;13.462;2023-03-12T06:55:10;5.90;;;2.00;;
72235;SDS011;60146;52.498;13.462;2023-03-12T06:57:35;7.63;;;2.43;;
72235;SDS011;60146;52.498;13.462;2023-03-12T07:00:01;5.00;;;2.03;;
72235;SDS011;60146;52.498;13.462;2023-03-12T07:02:27;7.63;;;2.27;;
72235;SDS011;60146;52.498;13.462;2023-03-12T07:04:52;6.13;;;2.30;;
72235;SDS011;60146;52.498;13.462;2023-03-12T07:07:17;4.23;;;1.90;;
72235;SDS011;60146;52.498;13.462;2023-03-12T07:09:44;8.67;;;2.17;;
72235;SDS011;60146;52.498;13.462;2023-03-12T07:12:09;5.70;;;1.97;;
72235;SDS011;60146;52.498;13.462;2023-03-12T07:14:35;8.77;;;2.23;;
72235;SDS011;60146;52.498;13.462;2023-03-12T07:17:01;7.93;;;2.67;;
72235;SDS011;60146;52.498;13.462;2023-03-12T07:19:28;5.20;;;2.30;;
72235;SDS011;60146;52.498;13.462;2023-03-12T07:21:56;6.43;;;2.13;;
72235;SDS011;60146;52.498;13.462;2023-03-12T07:24:21;5.33;;;2.30;;
72235;SDS011;60146;52.498;13.462;2023-03-12T07:26:47;8.07;;;2.47;;
72235;SDS011;60146;52.498;13.462;2023-03-12T07:29:12;6.73;;;2.13;;
72235;SDS011;60146;52.498;13.462;2023-03-12T07:31:37;8.27;;;2.33;;
72235;SDS011;60146;52.498;13.462;2023-03-12T07:34:03;5.17;;;2.20;;
72235;SDS011;60146;52.498;13.462;2023-03-12T07:36:30;5.87;;;2.23;;
72235;SDS011;60146;52.498;13.462;2023-03-12T07:38:55;5.67;;;2.23;;
72235;SDS011;60146;52.498;13.462;2023-03-12T07:41:21;4.77;;;2.20;;
72235;SDS011;60146;52.498;13.462;2023-03-12T07:43:46;9.43;;;2.17;;
72235;SDS011;60146;52.498;13.462;2023-03-12T07:46:12;4.80;;;1.90;;
72235;SDS011;60146;52.498;13.462;2023-03-12T07:48:37;3.07;;;1.70;;
72235;SDS011;60146;52.498;13.462;2023-03-12T07:51:03;3.73;;;1.90;;
72235;SDS011;60146;52.498;13.462;2023-03-12T07:53:29;7.70;;;2.43;;
72235;SDS011;60146;52.498;13.462;2023-03-12T07:55:55;4.07;;;2.00;;
72235;SDS011;60146;52.498;13.462;2023-03-12T07:58:20;5.90;;;1.60;;
72235;SDS011;60146;52.498;13.462;2023-03-12T08:00:45;5.23;;;2.00;;
72235;SDS011;60146;52.498;13.462;2023-03-12T08:03:11;6.57;;;2.37;;
72235;SDS011;60146;52.498;13.462;2023-03-12T08:05:37;3.33;;;1.50;;
72235;SDS011;60146;52.498;13.462;2023-03-12T08:08:03;5.63;;;2.00;;
72235;SDS011;60146;52.498;13.462;2023-03-12T08:10:28;7.80;;;2.50;;
72235;SDS011;60146;52.498;13.462;2023-03-12T08:12:53;4.63;;;1.73;;
72235;SDS011;60146;52.498;13.462;2023-03-12T08:15:19;5.03;;;1.70;;
72235;SDS011;60146;52.498;13.462;2023-03-12T08:17:44;6.93;;;1.73;;
72235;SDS011;60146;52.498;13.462;2023-03-12T08:20:10;2.93;;;1.47;;
72235;SDS011;60146;52.498;13.462;2023-03-12T08:22:36;3.83;;;1.77;;
72235;SDS011;60146;52.498;13.462;2023-03-12T08:25:02;4.47;;;1.90;;
72235;SDS011;60146;52.498;13.462;2023-03-12T08:27:28;7.43;;;2.20;;
72235;SDS011;60146;52.498;13.462;2023-03-12T08:29:54;6.03;;;1.80;;
72235;SDS011;60146;52.498;13.462;2023-03-12T08:32:19;5.30;;;1.90;;
72235;SDS011;60146;52.498;13.462;2023-03-12T08:34:44;4.03;;;1.70;;
72235;SDS011;60146;52.498;13.462;2023-03-12T08:37:10;5.30;;;1.70;;
72235;SDS011;60146;52.498;13.462;2023-03-12T08:39:35;4.00;;;1.73;;
72235;SDS011;60146;52.498;13.462;2023-03-12T08:42:00;6.07;;;1.70;;
72235;SDS011;60146;52.498;13.462;2023-03-12T08:44:26;3.00;;;1.50;;
72235;SDS011;60146;52.498;13.462;2023-03-12T08:46:52;4.27;;;1.50;;
72235;SDS011;60146;52.498;13.462;2023-03-12T08:49:17;2.87;;;1.57;;
72235;SDS011;60146;52.498;13.462;2023-03-12T08:51:47;4.60;;;1.60;;
72235;SDS011;60146;52.498;13.462;2023-03-12T08:54:13;9.93;;;1.93;;
72235;SDS011;60146;52.498;13.462;2023-03-12T08:56:38;2.37;;;1.27;;
72235;SDS011;60146;52.498;13.462;2023-03-12T08:59:08;5.37;;;1.63;;
72235;SDS011;60146;52.498;13.462;2023-03-12T09:01:34;4.17;;;1.30;;
72235;SDS011;60146;52.498;13.462;2023-03-12T09:03:59;3.63;;;1.40;;
72235;SDS011;60146;52.498;13.462;2023-03-12T09:06:26;4.60;;;1.50;;
72235;SDS011;60146;52.498;13.462;2023-03-12T09:08:51;4.83;;;1.60;;
72235;SDS011;60146;52.498;13.462;2023-03-12T09:11:17;3.83;;;1.37;;
72235;SDS011;60146;52.498;13.462;2023-03-12T09:13:42;2.77;;;1.20;;
72235;SDS011;60146;52.498;13.462;2023-03-12T09:16:08;4.13;;;1.40;;
72235;SDS011;60146;52.498;13.462;2023-03-12T09:18:34;3.97;;;1.10;;
72235;SDS011;60146;52.498;13.462;2023-03-12T09:20:59;4.93;;;1.30;;
72235;SDS011;60146;52.498;13.462;2023-03-12T09:23:25;4.83;;;1.30;;
72235;SDS011;60146;52.498;13.462;2023-03-12T09:25:52;3.23;;;1.07;;
72235;SDS011;60146;52.498;13.462;2023-03-12T09:28:19;5.27;;;1.20;;
72235;SDS011;60146;52.498;13.462;2023-03-12T09:30:44;2.83;;;0.97;;
72235;SDS011;60146;52.498;13.462;2023-03-12T09:33:10;2.73;;;0.90;;
72235;SDS011;60146;52.498;13.462;2023-03-12T09:35:37;4.40;;;1.03;;
72235;SDS011;60146;52.498;13.462;2023-03-12T09:38:02;3.60;;;1.20;;
72235;SDS011;60146;52.498;13.462;2023-03-12T09:40:29;3.50;;;1.23;;
72235;SDS011;60146;52.498;13.462;2023-03-12T09:43:01;4.43;;;1.40;;
72235;SDS011;60146;52.498;13.462;2023-03-12T09:45:35;2.03;;;1.20;;
72235;SDS011;60146;52.498;13.462;2023-03-12T09:48:06;2.30;;;1.10;;
72235;SDS011;60146;52.498;13.462;2023-03-12T09:50:40;2.67;;;1.30;;
72235;SDS011;60146;52.498;13.462;2023-03-12T09:55:42;6.20;;;1.53;;
72235;SDS011;60146;52.498;13.462;2023-03-12T09:58:29;3.23;;;1.10;;
72235;SDS011;60146;52.498;13.462;2023-03-12T10:01:00;2.47;;;0.80;;
72235;SDS011;60146;52.498;13.462;2023-03-12T10:03:33;2.50;;;1.00;;
72235;SDS011;60146;52.498;13.462;2023-03-12T10:06:28;1.73;;;0.80;;
72235;SDS011;60146;52.498;13.462;2023-03-12T10:23:33;4.27;;;1.10;;
72235;SDS011;60146;52.498;13.462;2023-03-12T10:26:22;3.17;;;0.70;;
72235;SDS011;60146;52.498;13.462;2023-03-12T10:28:58;2.60;;;0.90;;
72235;SDS011;60146;52.498;13.462;2023-03-12T10:31:28;2.00;;;1.00;;
72235;SDS011;60146;52.498;13.462;2023-03-12T10:33:58;3.20;;;0.98;;
72235;SDS011;60146;52.498;13.462;2023-03-12T10:36:28;1.83;;;1.00;;
72235;SDS011;60146;52.498;13.462;2023-03-12T10:39:04;2.53;;;1.07;;
72235;SDS011;60146;52.498;13.462;2023-03-12T10:41:37;2.03;;;1.00;;
72235;SDS011;60146;52.498;13.462;2023-03-12T10:44:05;1.90;;;1.20;;
72235;SDS011;60146;52.498;13.462;2023-03-12T10:54:38;3.87;;;1.00;;
72235;SDS011;60146;52.498;13.462;2023-03-12T10:57:05;3.23;;;0.83;;
72235;SDS011;60146;52.498;13.462;2023-03-12T10:59:36;2.20;;;0.80;;
72235;SDS011;60146;52.498;13.462;2023-03-12T11:02:29;2.90;;;0.90;;
72235;SDS011;60146;52.498;13.462;2023-03-12T11:04:51;4.57;;;1.00;;
72235;SDS011;60146;52.498;13.462;2023-03-12T11:07:20;2.30;;;1.02;;
72235;SDS011;60146;52.498;13.462;2023-03-12T11:10:11;3.67;;;0.80;;
72235;SDS011;60146;52.498;13.462;2023-03-12T11:12:39;2.03;;;1.00;;
72235;SDS011;60146;52.498;13.462;2023-03-12T11:21:28;2.33;;;0.93;;
72235;SDS011;60146;52.498;13.462;2023-03-12T11:24:08;6.03;;;1.35;;
72235;SDS011;60146;52.498;13.462;2023-03-12T11:26:49;3.23;;;1.77;;
72235;SDS011;60146;52.498;13.462;2023-03-12T11:30:13;3.67;;;1.20;;
72235;SDS011;60146;52.498;13.462;2023-03-12T11:32:45;2.50;;;1.20;;
72235;SDS011;60146;52.498;13.462;2023-03-12T12:26:30;3.07;;;1.43;;
72235;SDS011;60146;52.498;13.462;2023-03-12T12:35:36;4.33;;;1.70;;
72235;SDS011;60146;52.498;13.462;2023-03-12T12:38:32;3.80;;;1.70;;
72235;SDS011;60146;52.498;13.462;2023-03-12T12:41:50;3.93;;;1.67;;
72235;SDS011;60146;52.498;13.462;2023-03-12T12:44:23;5.60;;;1.67;;
72235;SDS011;60146;52.498;13.462;2023-03-12T12:47:08;3.93;;;1.50;;
72235;SDS011;60146;52.498;13.462;2023-03-12T12:49:51;3.03;;;1.40;;
72235;SDS011;60146;52.498;13.462;2023-03-12T12:52:26;4.67;;;1.80;;
72235;SDS011;60146;52.498;13.462;2023-03-12T12:55:05;4.57;;;1.80;;
72235;SDS011;60146;52.498;13.462;2023-03-12T12:58:02;3.35;;;1.63;;
72235;SDS011;60146;52.498;13.462;2023-03-12T13:00:57;3.13;;;1.53;;
72235;SDS011;60146;52.498;13.462;2023-03-12T13:05:55;3.73;;;1.53;;
72235;SDS011;60146;52.498;13.462;2023-03-12T13:13:44;3.40;;;1.50;;
72235;SDS011;60146;52.498;13.462;2023-03-12T13:16:17;3.93;;;1.20;;
72235;SDS011;60146;52.498;13.462;2023-03-12T13:21:49;3.30;;;1.90;;
72235;SDS011;60146;52.498;13.462;2023-03-12T13:24:19;3.00;;;1.40;;
72235;SDS011;60146;52.498;13.462;2023-03-12T13:29:21;2.60;;;1.40;;
72235;SDS011;60146;52.498;13.462;2023-03-12T13:32:04;2.33;;;1.10;;
72235;SDS011;60146;52.498;13.462;2023-03-12T13:34:43;5.43;;;1.23;;
72235;SDS011;60146;52.498;13.462;2023-03-12T13:37:17;3.80;;;1.30;;
72235;SDS011;60146;52.498;13.462;2023-03-12T13:39:45;8.23;;;1.57;;
72235;SDS011;60146;52.498;13.462;2023-03-12T13:44:48;3.13;;;1.30;;
72235;SDS011;60146;52.498;13.462;2023-03-12T13:47:27;3.07;;;1.93;;
72235;SDS011;60146;52.498;13.462;2023-03-12T13:49:56;2.95;;;1.20;;
72235;SDS011;60146;52.498;13.462;2023-03-12T13:52:39;3.33;;;1.30;;
72235;SDS011;60146;52.498;13.462;2023-03-12T13:55:24;2.07;;;1.10;;
72235;SDS011;60146;52.498;13.462;2023-03-12T13:58:06;2.80;;;0.90;;
72235;SDS011;60146;52.498;13.462;2023-03-12T14:00:49;2.37;;;0.90;;
72235;SDS011;60146;52.498;13.462;2023-03-12T14:03:41;3.60;;;0.87;;
72235;SDS011;60146;52.498;13.462;2023-03-12T14:06:13;1.60;;;0.70;;
72235;SDS011;60146;52.498;13.462;2023-03-12T14:16:43;2.40;;;0.70;;
72235;SDS011;60146;52.498;13.462;2023-03-12T14:19:17;3.25;;;0.75;;
72235;SDS011;60146;52.498;13.462;2023-03-12T14:21:47;1.27;;;0.77;;
72235;SDS011;60146;52.498;13.462;2023-03-12T14:24:26;1.70;;;0.90;;
72235;SDS011;60146;52.498;13.462;2023-03-12T14:26:54;1.02;;;0.63;;
72235;SDS011;60146;52.498;13.462;2023-03-12T14:29:30;1.37;;;0.83;;
72235;SDS011;60146;52.498;13.462;2023-03-12T14:32:19;1.93;;;1.00;;
72235;SDS011;60146;52.498;13.462;2023-03-12T14:34:56;1.90;;;0.83;;
72235;SDS011;60146;52.498;13.462;2023-03-12T14:37:35;2.40;;;0.90;;
72235;SDS011;60146;52.498;13.462;2023-03-12T14:40:19;2.23;;;1.03;;
72235;SDS011;60146;52.498;13.462;2023-03-12T14:42:45;3.65;;;0.93;;
72235;SDS011;60146;52.498;13.462;2023-03-12T14:45:12;3.27;;;1.00;;
72235;SDS011;60146;52.498;13.462;2023-03-12T14:47:41;2.33;;;0.90;;
72235;SDS011;60146;52.498;13.462;2023-03-12T14:50:23;0.87;;;0.70;;
72235;SDS011;60146;52.498;13.462;2023-03-12T14:52:54;1.40;;;0.80;;
72235;SDS011;60146;52.498;13.462;2023-03-12T14:55:35;2.40;;;1.00;;
72235;SDS011;60146;52.498;13.462;2023-03-12T14:58:04;1.60;;;0.90;;
72235;SDS011;60146;52.498;13.462;2023-03-12T15:00:39;4.10;;;0.80;;
72235;SDS011;60146;52.498;13.462;2023-03-12T15:03:09;2.43;;;0.80;;
72235;SDS011;60146;52.498;13.462;2023-03-12T15:05:43;3.10;;;1.20;;
72235;SDS011;60146;52.498;13.462;2023-03-12T15:08:10;2.30;;;0.80;;
72235;SDS011;60146;52.498;13.462;2023-03-12T15:10:37;1.67;;;0.90;;
72235;SDS011;60146;52.498;13.462;2023-03-12T15:13:04;5.50;;;1.60;;
72235;SDS011;60146;52.498;13.462;2023-03-12T15:15:35;1.87;;;0.83;;
72235;SDS011;60146;52.498;13.462;2023-03-12T15:18:06;1.80;;;0.70;;
72235;SDS011;60146;52.498;13.462;2023-03-12T15:20:35;1.27;;;0.88;;
72235;SDS011;60146;52.498;13.462;2023-03-12T15:23:01;4.80;;;0.90;;
72235;SDS011;60146;52.498;13.462;2023-03-12T15:25:31;3.17;;;0.80;;
72235;SDS011;60146;52.498;13.462;2023-03-12T15:30:36;2.47;;;0.80;;
72235;SDS011;60146;52.498;13.462;2023-03-12T15:33:11;2.70;;;1.07;;
72235;SDS011;60146;52.498;13.462;2023-03-12T15:35:56;1.93;;;0.83;;
72235;SDS011;60146;52.498;13.462;2023-03-12T15:38:24;2.87;;;1.03;;
72235;SDS011;60146;52.498;13.462;2023-03-12T15:40:50;2.83;;;1.07;;
72235;SDS011;60146;52.498;13.462;2023-03-12T15:43:21;2.43;;;1.20;;
72235;SDS011;60146;52.498;13.462;2023-03-12T15:45:55;3.90;;;0.83;;
72235;SDS011;60146;52.498;13.462;2023-03-12T15:50:53;3.17;;;1.30;;
72235;SDS011;60146;52.498;13.462;2023-03-12T15:55:55;4.80;;;1.37;;
72235;SDS011;60146;52.498;13.462;2023-03-12T15:58:27;1.80;;;1.30;;
72235;SDS011;60146;52.498;13.462;2023-03-12T16:00:53;2.83;;;1.20;;
72235;SDS011;60146;52.498;13.462;2023-03-12T16:03:21;6.30;;;1.33;;
72235;SDS011;60146;52.498;13.462;2023-03-12T16:05:47;5.23;;;1.53;;
72235;SDS011;60146;52.498;13.462;2023-03-12T16:08:18;3.73;;;1.40;;
72235;SDS011;60146;52.498;13.462;2023-03-12T16:16:53;5.20;;;1.43;;
72235;SDS011;60146;52.498;13.462;2023-03-12T16:19:19;13.23;;;2.17;;
72235;SDS011;60146;52.498;13.462;2023-03-12T16:21:46;4.77;;;1.50;;
72235;SDS011;60146;52.498;13.462;2023-03-12T16:24:12;4.97;;;1.80;;
72235;SDS011;60146;52.498;13.462;2023-03-12T16:26:47;6.80;;;1.70;;
72235;SDS011;60146;52.498;13.462;2023-03-12T16:29:15;5.17;;;1.90;;
72235;SDS011;60146;52.498;13.462;2023-03-12T16:31:42;3.63;;;1.83;;
72235;SDS011;60146;52.498;13.462;2023-03-12T16:34:10;4.67;;;2.00;;
72235;SDS011;60146;52.498;13.462;2023-03-12T16:36:36;5.00;;;2.07;;
72235;SDS011;60146;52.498;13.462;2023-03-12T16:39:02;4.40;;;2.03;;
72235;SDS011;60146;52.498;13.462;2023-03-12T16:41:28;4.13;;;2.20;;
72235;SDS011;60146;52.498;13.462;2023-03-12T16:43:56;3.13;;;1.80;;
72235;SDS011;60146;52.498;13.462;2023-03-12T16:46:28;5.37;;;2.10;;
72235;SDS011;60146;52.498;13.462;2023-03-12T16:48:58;5.87;;;2.20;;
72235;SDS011;60146;52.498;13.462;2023-03-12T16:51:24;3.93;;;2.07;;